Snel-info
Kleurcode:
Groen
Er mag gevlogen worden.
Laatste update: 14/12/2018
Kleurcode informatie

Grasmaaien:

Geen maaibeurten gepland.

Volgende vliegdagen:

  • di 25 december : Kerstmis
  • wo 26 december : 2e Kerstdag
  • di 1 januari : Nieuwjaar
Alle extra vliegdagen

Weersituatie op PMF:

075_Jets_Over_Pampa_2007__26_Fischer.jpg

Huidige weersituatie

Huidig weerbeeld in Kleine Brogel, Belgium
Huidige wind in Kleine Brogel, Belgium

Dit is het bericht voor Kleine Brogel, Belgium en werd 18 minuten geleden gemaakt.
De wind waaide met een snelheid van 2.1 meter per seconde (7.4 km/h) uit het oost/zuidoosten (110°).
De temperatuur was -1 °C. De gevoelstemperatuur was -4 °C. De atmosferische druk was 1012 hPa. De relative luchtvochtigheid was 92.9%. Het algemene zicht was 2500 meter. Momenteel lichte sneeuw.

De onbewerkte METAR gegevens waarop dit bericht is gebaseerd zijn:
EBBL 160025Z AUTO 11004KT 2500 -SN FEW022/// OVC038/// M01/M02 Q1012 YLO


Opmerking:
De wind blijkt op PMF meestal iets krachtiger te waaien dan op Kleine Brogel. De windrichting klopt dan weer wel.




KMI

De weersvoorspellingen van het KMI vind je via deze link.


Buienradar

Op www.buienradar.nl kun je zelf zien waar het nu en de komende uren regent.